sensor_id;sensor_type;location;lat;lon;timestamp;P1;durP1;ratioP1;P2;durP2;ratioP2
74959;SDS011;63518;49.572;1.106;2023-03-17T03:06:58;7.05;;;1.90;;
74959;SDS011;63518;49.572;1.106;2023-03-17T03:09:25;7.35;;;2.30;;
74959;SDS011;63518;49.572;1.106;2023-03-17T03:11:52;5.78;;;1.70;;
74959;SDS011;63518;49.572;1.106;2023-03-17T03:14:19;5.72;;;1.90;;
74959;SDS011;63518;49.572;1.106;2023-03-17T03:16:47;9.55;;;2.60;;
74959;SDS011;63518;49.572;1.106;2023-03-17T03:19:14;7.03;;;2.65;;
74959;SDS011;63518;49.572;1.106;2023-03-17T03:21:41;10.25;;;2.63;;
74959;SDS011;63518;49.572;1.106;2023-03-17T03:24:08;6.97;;;2.58;;
74959;SDS011;63518;49.572;1.106;2023-03-17T03:26:36;8.57;;;2.25;;
74959;SDS011;63518;49.572;1.106;2023-03-17T03:29:03;7.57;;;2.00;;
74959;SDS011;63518;49.572;1.106;2023-03-17T03:31:30;8.00;;;2.15;;
74959;SDS011;63518;49.572;1.106;2023-03-17T03:33:57;6.13;;;2.20;;
74959;SDS011;63518;49.572;1.106;2023-03-17T03:36:25;9.07;;;2.83;;
74959;SDS011;63518;49.572;1.106;2023-03-17T03:38:53;9.73;;;3.05;;
74959;SDS011;63518;49.572;1.106;2023-03-17T03:41:20;8.52;;;2.65;;
74959;SDS011;63518;49.572;1.106;2023-03-17T03:43:47;7.95;;;2.60;;
74959;SDS011;63518;49.572;1.106;2023-03-17T03:46:14;5.88;;;2.25;;
74959;SDS011;63518;49.572;1.106;2023-03-17T03:48:42;8.90;;;4.00;;
74959;SDS011;63518;49.572;1.106;2023-03-17T03:51:09;7.85;;;2.88;;
74959;SDS011;63518;49.572;1.106;2023-03-17T03:53:38;8.43;;;2.30;;
74959;SDS011;63518;49.572;1.106;2023-03-17T03:56:05;6.05;;;2.13;;
74959;SDS011;63518;49.572;1.106;2023-03-17T03:58:32;6.85;;;2.22;;
74959;SDS011;63518;49.572;1.106;2023-03-17T04:01:02;7.05;;;2.70;;
74959;SDS011;63518;49.572;1.106;2023-03-17T04:03:30;6.22;;;2.15;;
74959;SDS011;63518;49.572;1.106;2023-03-17T04:05:58;6.03;;;2.78;;
74959;SDS011;63518;49.572;1.106;2023-03-17T04:08:25;12.20;;;2.35;;
74959;SDS011;63518;49.572;1.106;2023-03-17T04:10:52;7.22;;;2.45;;
74959;SDS011;63518;49.572;1.106;2023-03-17T04:13:19;9.18;;;2.50;;
74959;SDS011;63518;49.572;1.106;2023-03-17T04:15:46;6.55;;;2.08;;
74959;SDS011;63518;49.572;1.106;2023-03-17T04:18:13;6.85;;;2.50;;
74959;SDS011;63518;49.572;1.106;2023-03-17T04:20:40;7.03;;;2.50;;
74959;SDS011;63518;49.572;1.106;2023-03-17T04:23:07;7.18;;;2.65;;
74959;SDS011;63518;49.572;1.106;2023-03-17T04:25:34;5.65;;;2.53;;
74959;SDS011;63518;49.572;1.106;2023-03-17T04:28:02;7.00;;;2.63;;
74959;SDS011;63518;49.572;1.106;2023-03-17T04:30:29;7.20;;;2.67;;
74959;SDS011;63518;49.572;1.106;2023-03-17T04:32:57;7.53;;;2.58;;
74959;SDS011;63518;49.572;1.106;2023-03-17T04:35:24;7.65;;;3.00;;
74959;SDS011;63518;49.572;1.106;2023-03-17T04:37:51;8.00;;;2.58;;
74959;SDS011;63518;49.572;1.106;2023-03-17T04:40:18;11.60;;;4.60;;
74959;SDS011;63518;49.572;1.106;2023-03-17T04:42:45;10.52;;;3.40;;
74959;SDS011;63518;49.572;1.106;2023-03-17T04:45:13;8.93;;;3.25;;
74959;SDS011;63518;49.572;1.106;2023-03-17T04:47:41;6.10;;;2.30;;
74959;SDS011;63518;49.572;1.106;2023-03-17T04:50:09;7.63;;;2.67;;
74959;SDS011;63518;49.572;1.106;2023-03-17T04:52:36;9.45;;;2.83;;
74959;SDS011;63518;49.572;1.106;2023-03-17T04:55:05;5.82;;;2.25;;
74959;SDS011;63518;49.572;1.106;2023-03-17T04:57:34;7.35;;;2.88;;
74959;SDS011;63518;49.572;1.106;2023-03-17T05:00:05;10.55;;;2.90;;
74959;SDS011;63518;49.572;1.106;2023-03-17T05:02:33;7.60;;;2.65;;
74959;SDS011;63518;49.572;1.106;2023-03-17T05:05:00;5.72;;;2.20;;
74959;SDS011;63518;49.572;1.106;2023-03-17T05:07:29;6.90;;;2.92;;
74959;SDS011;63518;49.572;1.106;2023-03-17T05:09:59;5.57;;;2.42;;
74959;SDS011;63518;49.572;1.106;2023-03-17T05:12:28;5.18;;;2.10;;
74959;SDS011;63518;49.572;1.106;2023-03-17T05:14:55;3.67;;;1.08;;
74959;SDS011;63518;49.572;1.106;2023-03-17T05:17:22;7.85;;;2.92;;
74959;SDS011;63518;49.572;1.106;2023-03-17T05:19:50;5.22;;;2.25;;
74959;SDS011;63518;49.572;1.106;2023-03-17T05:22:16;6.90;;;2.20;;
74959;SDS011;63518;49.572;1.106;2023-03-17T05:24:43;4.72;;;1.92;;
74959;SDS011;63518;49.572;1.106;2023-03-17T05:27:10;7.22;;;2.45;;
74959;SDS011;63518;49.572;1.106;2023-03-17T05:29:37;6.55;;;2.42;;
74959;SDS011;63518;49.572;1.106;2023-03-17T05:32:04;6.13;;;2.20;;
74959;SDS011;63518;49.572;1.106;2023-03-17T05:34:32;6.05;;;2.47;;
74959;SDS011;63518;49.572;1.106;2023-03-17T05:36:59;5.35;;;1.63;;
74959;SDS011;63518;49.572;1.106;2023-03-17T05:39:26;5.53;;;2.33;;
74959;SDS011;63518;49.572;1.106;2023-03-17T05:41:53;2.90;;;0.88;;
74959;SDS011;63518;49.572;1.106;2023-03-17T05:44:20;7.95;;;2.63;;
74959;SDS011;63518;49.572;1.106;2023-03-17T05:46:47;6.65;;;2.53;;
74959;SDS011;63518;49.572;1.106;2023-03-17T05:49:14;6.18;;;2.58;;
74959;SDS011;63518;49.572;1.106;2023-03-17T05:51:40;6.40;;;2.63;;
74959;SDS011;63518;49.572;1.106;2023-03-17T05:54:09;6.10;;;2.45;;
74959;SDS011;63518;49.572;1.106;2023-03-17T05:56:36;5.97;;;2.20;;
74959;SDS011;63518;49.572;1.106;2023-03-17T05:59:03;9.73;;;2.85;;
74959;SDS011;63518;49.572;1.106;2023-03-17T06:01:30;7.00;;;2.33;;
74959;SDS011;63518;49.572;1.106;2023-03-17T06:03:57;7.65;;;2.33;;
74959;SDS011;63518;49.572;1.106;2023-03-17T06:06:25;8.23;;;2.60;;
74959;SDS011;63518;49.572;1.106;2023-03-17T06:08:52;6.95;;;2.42;;
74959;SDS011;63518;49.572;1.106;2023-03-17T06:11:19;7.88;;;2.35;;
74959;SDS011;63518;49.572;1.106;2023-03-17T06:13:47;3.75;;;1.27;;
74959;SDS011;63518;49.572;1.106;2023-03-17T06:16:15;7.63;;;2.17;;
74959;SDS011;63518;49.572;1.106;2023-03-17T06:18:42;6.63;;;2.05;;
74959;SDS011;63518;49.572;1.106;2023-03-17T06:21:09;3.47;;;1.52;;
74959;SDS011;63518;49.572;1.106;2023-03-17T06:23:36;10.93;;;0.88;;
74959;SDS011;63518;49.572;1.106;2023-03-17T06:26:03;6.85;;;1.38;;
74959;SDS011;63518;49.572;1.106;2023-03-17T06:28:31;4.93;;;1.67;;
74959;SDS011;63518;49.572;1.106;2023-03-17T06:30:58;5.70;;;1.98;;
74959;SDS011;63518;49.572;1.106;2023-03-17T06:33:25;5.10;;;1.27;;
74959;SDS011;63518;49.572;1.106;2023-03-17T06:35:52;1.27;;;0.52;;
74959;SDS011;63518;49.572;1.106;2023-03-17T06:38:19;5.10;;;2.22;;
74959;SDS011;63518;49.572;1.106;2023-03-17T06:40:46;5.88;;;2.22;;
74959;SDS011;63518;49.572;1.106;2023-03-17T06:43:13;6.20;;;2.28;;
74959;SDS011;63518;49.572;1.106;2023-03-17T06:45:40;3.10;;;1.27;;
74959;SDS011;63518;49.572;1.106;2023-03-17T06:48:07;1.40;;;0.40;;
74959;SDS011;63518;49.572;1.106;2023-03-17T06:50:35;6.03;;;1.60;;
74959;SDS011;63518;49.572;1.106;2023-03-17T06:53:01;7.72;;;2.22;;
74959;SDS011;63518;49.572;1.106;2023-03-17T06:55:29;4.65;;;1.85;;
74959;SDS011;63518;49.572;1.106;2023-03-17T06:57:57;4.60;;;1.02;;
74959;SDS011;63518;49.572;1.106;2023-03-17T07:00:24;5.43;;;1.35;;
74959;SDS011;63518;49.572;1.106;2023-03-17T07:02:53;5.32;;;2.00;;
74959;SDS011;63518;49.572;1.106;2023-03-17T07:05:19;6.40;;;1.95;;
74959;SDS011;63518;49.572;1.106;2023-03-17T07:07:47;3.97;;;1.05;;
74959;SDS011;63518;49.572;1.106;2023-03-17T07:10:15;1.73;;;0.52;;
74959;SDS011;63518;49.572;1.106;2023-03-17T07:12:43;6.50;;;2.22;;
74959;SDS011;63518;49.572;1.106;2023-03-17T07:15:11;3.60;;;1.05;;
74959;SDS011;63518;49.572;1.106;2023-03-17T07:17:38;6.43;;;1.65;;
74959;SDS011;63518;49.572;1.106;2023-03-17T07:20:05;5.78;;;2.00;;
74959;SDS011;63518;49.572;1.106;2023-03-17T07:22:32;6.30;;;2.20;;
74959;SDS011;63518;49.572;1.106;2023-03-17T07:24:59;5.40;;;2.25;;
74959;SDS011;63518;49.572;1.106;2023-03-17T07:27:26;8.63;;;2.53;;
74959;SDS011;63518;49.572;1.106;2023-03-17T07:29:53;9.02;;;2.33;;
74959;SDS011;63518;49.572;1.106;2023-03-17T07:32:20;5.57;;;2.13;;
74959;SDS011;63518;49.572;1.106;2023-03-17T07:34:47;5.28;;;1.65;;
74959;SDS011;63518;49.572;1.106;2023-03-17T07:37:14;3.60;;;1.52;;
74959;SDS011;63518;49.572;1.106;2023-03-17T07:39:41;2.63;;;0.80;;
74959;SDS011;63518;49.572;1.106;2023-03-17T07:42:08;4.00;;;1.45;;
74959;SDS011;63518;49.572;1.106;2023-03-17T07:44:37;6.40;;;2.33;;
74959;SDS011;63518;49.572;1.106;2023-03-17T07:47:07;6.82;;;1.90;;
74959;SDS011;63518;49.572;1.106;2023-03-17T07:49:36;5.05;;;1.95;;
74959;SDS011;63518;49.572;1.106;2023-03-17T07:52:08;6.15;;;2.50;;
74959;SDS011;63518;49.572;1.106;2023-03-17T07:54:36;6.28;;;1.90;;
74959;SDS011;63518;49.572;1.106;2023-03-17T07:57:03;6.47;;;2.40;;
74959;SDS011;63518;49.572;1.106;2023-03-17T07:59:31;7.30;;;2.33;;
74959;SDS011;63518;49.572;1.106;2023-03-17T08:01:58;3.13;;;1.35;;
74959;SDS011;63518;49.572;1.106;2023-03-17T08:04:27;4.22;;;1.20;;
74959;SDS011;63518;49.572;1.106;2023-03-17T08:06:55;5.63;;;2.45;;
74959;SDS011;63518;49.572;1.106;2023-03-17T08:11:50;5.82;;;1.75;;
74959;SDS011;63518;49.572;1.106;2023-03-17T08:14:17;5.68;;;2.30;;
74959;SDS011;63518;49.572;1.106;2023-03-17T08:16:44;5.80;;;2.15;;
74959;SDS011;63518;49.572;1.106;2023-03-17T08:19:11;6.68;;;2.00;;
74959;SDS011;63518;49.572;1.106;2023-03-17T08:21:38;5.30;;;2.00;;
74959;SDS011;63518;49.572;1.106;2023-03-17T08:24:05;6.05;;;2.33;;
74959;SDS011;63518;49.572;1.106;2023-03-17T08:26:32;5.90;;;2.55;;
74959;SDS011;63518;49.572;1.106;2023-03-17T08:28:59;8.23;;;2.58;;
74959;SDS011;63518;49.572;1.106;2023-03-17T08:31:27;6.72;;;2.17;;
74959;SDS011;63518;49.572;1.106;2023-03-17T08:33:54;5.45;;;1.92;;
74959;SDS011;63518;49.572;1.106;2023-03-17T08:36:23;5.90;;;1.77;;
74959;SDS011;63518;49.572;1.106;2023-03-17T08:38:50;6.00;;;2.08;;
74959;SDS011;63518;49.572;1.106;2023-03-17T08:41:18;7.03;;;2.20;;
74959;SDS011;63518;49.572;1.106;2023-03-17T08:43:48;7.20;;;2.10;;
74959;SDS011;63518;49.572;1.106;2023-03-17T08:46:18;5.45;;;1.90;;
74959;SDS011;63518;49.572;1.106;2023-03-17T08:48:45;9.65;;;2.50;;
74959;SDS011;63518;49.572;1.106;2023-03-17T08:53:44;4.53;;;1.50;;
74959;SDS011;63518;49.572;1.106;2023-03-17T08:56:12;8.23;;;3.10;;
74959;SDS011;63518;49.572;1.106;2023-03-17T08:58:39;10.77;;;3.33;;
74959;SDS011;63518;49.572;1.106;2023-03-17T09:01:08;9.75;;;3.45;;
74959;SDS011;63518;49.572;1.106;2023-03-17T09:03:36;7.80;;;3.25;;
74959;SDS011;63518;49.572;1.106;2023-03-17T09:06:05;8.40;;;3.50;;
74959;SDS011;63518;49.572;1.106;2023-03-17T09:08:34;8.77;;;3.00;;
74959;SDS011;63518;49.572;1.106;2023-03-17T09:11:07;8.57;;;3.57;;
74959;SDS011;63518;49.572;1.106;2023-03-17T09:13:35;9.02;;;3.50;;
74959;SDS011;63518;49.572;1.106;2023-03-17T09:16:04;9.27;;;3.60;;
74959;SDS011;63518;49.572;1.106;2023-03-17T09:18:33;9.57;;;4.50;;
74959;SDS011;63518;49.572;1.106;2023-03-17T09:21:01;9.33;;;4.13;;
74959;SDS011;63518;49.572;1.106;2023-03-17T09:23:29;7.20;;;3.08;;
74959;SDS011;63518;49.572;1.106;2023-03-17T09:25:56;6.07;;;2.38;;
74959;SDS011;63518;49.572;1.106;2023-03-17T09:28:24;7.50;;;2.70;;
74959;SDS011;63518;49.572;1.106;2023-03-17T09:30:51;4.80;;;1.70;;
74959;SDS011;63518;49.572;1.106;2023-03-17T09:33:18;6.25;;;2.30;;
74959;SDS011;63518;49.572;1.106;2023-03-17T09:35:45;4.72;;;1.60;;
74959;SDS011;63518;49.572;1.106;2023-03-17T09:38:13;5.82;;;2.05;;
74959;SDS011;63518;49.572;1.106;2023-03-17T09:40:44;6.35;;;2.30;;
74959;SDS011;63518;49.572;1.106;2023-03-17T09:43:35;6.15;;;2.40;;
74959;SDS011;63518;49.572;1.106;2023-03-17T09:46:30;6.85;;;2.30;;
74959;SDS011;63518;49.572;1.106;2023-03-17T09:49:11;5.80;;;1.77;;
74959;SDS011;63518;49.572;1.106;2023-03-17T09:51:41;6.68;;;2.58;;
74959;SDS011;63518;49.572;1.106;2023-03-17T09:54:23;5.63;;;1.95;;
74959;SDS011;63518;49.572;1.106;2023-03-17T09:56:57;6.90;;;2.75;;
74959;SDS011;63518;49.572;1.106;2023-03-17T09:59:44;5.47;;;2.40;;
74959;SDS011;63518;49.572;1.106;2023-03-17T10:02:25;6.63;;;2.40;;
74959;SDS011;63518;49.572;1.106;2023-03-17T10:04:55;7.27;;;2.23;;
74959;SDS011;63518;49.572;1.106;2023-03-17T10:07:25;6.13;;;2.50;;
74959;SDS011;63518;49.572;1.106;2023-03-17T10:10:03;6.30;;;2.17;;
74959;SDS011;63518;49.572;1.106;2023-03-17T10:12:43;7.00;;;2.35;;
74959;SDS011;63518;49.572;1.106;2023-03-17T10:17:46;7.50;;;2.35;;
74959;SDS011;63518;49.572;1.106;2023-03-17T10:20:15;5.50;;;1.65;;
74959;SDS011;63518;49.572;1.106;2023-03-17T10:22:59;5.32;;;1.90;;
74959;SDS011;63518;49.572;1.106;2023-03-17T10:25:29;6.32;;;2.08;;
74959;SDS011;63518;49.572;1.106;2023-03-17T10:30:41;4.63;;;1.70;;
74959;SDS011;63518;49.572;1.106;2023-03-17T10:33:09;6.40;;;2.30;;
74959;SDS011;63518;49.572;1.106;2023-03-17T10:35:37;5.63;;;1.95;;
74959;SDS011;63518;49.572;1.106;2023-03-17T10:40:44;4.22;;;1.20;;
74959;SDS011;63518;49.572;1.106;2023-03-17T10:43:18;7.45;;;2.22;;
74959;SDS011;63518;49.572;1.106;2023-03-17T10:46:00;6.93;;;2.40;;
74959;SDS011;63518;49.572;1.106;2023-03-17T10:48:29;5.53;;;2.10;;
74959;SDS011;63518;49.572;1.106;2023-03-17T10:51:04;6.13;;;2.33;;
74959;SDS011;63518;49.572;1.106;2023-03-17T10:53:38;4.68;;;1.52;;
74959;SDS011;63518;49.572;1.106;2023-03-17T10:56:10;5.00;;;1.60;;
74959;SDS011;63518;49.572;1.106;2023-03-17T10:58:53;5.40;;;1.52;;
74959;SDS011;63518;49.572;1.106;2023-03-17T11:01:29;5.82;;;1.60;;
74959;SDS011;63518;49.572;1.106;2023-03-17T11:04:32;4.85;;;1.42;;
74959;SDS011;63518;49.572;1.106;2023-03-17T11:07:06;5.15;;;1.45;;
74959;SDS011;63518;49.572;1.106;2023-03-17T11:09:40;5.80;;;1.67;;
74959;SDS011;63518;49.572;1.106;2023-03-17T11:12:21;3.53;;;0.97;;
74959;SDS011;63518;49.572;1.106;2023-03-17T11:14:58;7.32;;;1.92;;
74959;SDS011;63518;49.572;1.106;2023-03-17T11:17:32;4.63;;;1.40;;
74959;SDS011;63518;49.572;1.106;2023-03-17T11:22:47;5.93;;;1.95;;
74959;SDS011;63518;49.572;1.106;2023-03-17T11:25:22;8.88;;;2.83;;
74959;SDS011;63518;49.572;1.106;2023-03-17T11:30:46;6.30;;;1.90;;
74959;SDS011;63518;49.572;1.106;2023-03-17T11:34:17;8.13;;;2.22;;
74959;SDS011;63518;49.572;1.106;2023-03-17T11:39:24;6.70;;;1.55;;
74959;SDS011;63518;49.572;1.106;2023-03-17T11:56:13;7.47;;;1.65;;
74959;SDS011;63518;49.572;1.106;2023-03-17T11:58:59;6.13;;;1.50;;
74959;SDS011;63518;49.572;1.106;2023-03-17T12:04:52;8.40;;;3.40;;
74959;SDS011;63518;49.572;1.106;2023-03-17T12:07:42;6.10;;;2.25;;
74959;SDS011;63518;49.572;1.106;2023-03-17T12:10:23;7.72;;;2.10;;
74959;SDS011;63518;49.572;1.106;2023-03-17T12:13:04;6.67;;;2.20;;
74959;SDS011;63518;49.572;1.106;2023-03-17T12:18:15;6.15;;;1.70;;
74959;SDS011;63518;49.572;1.106;2023-03-17T12:21:10;5.22;;;1.70;;
74959;SDS011;63518;49.572;1.106;2023-03-17T12:26:58;6.60;;;1.63;;
74959;SDS011;63518;49.572;1.106;2023-03-17T12:29:09;6.65;;;1.70;;
74959;SDS011;63518;49.572;1.106;2023-03-17T12:31:47;6.28;;;1.55;;
74959;SDS011;63518;49.572;1.106;2023-03-17T12:34:24;5.20;;;1.38;;
74959;SDS011;63518;49.572;1.106;2023-03-17T12:36:56;6.77;;;1.57;;
74959;SDS011;63518;49.572;1.106;2023-03-17T12:39:26;4.15;;;1.13;;
74959;SDS011;63518;49.572;1.106;2023-03-17T12:52:56;6.80;;;2.13;;
74959;SDS011;63518;49.572;1.106;2023-03-17T12:55:27;5.35;;;1.83;;
74959;SDS011;63518;49.572;1.106;2023-03-17T12:58:03;6.55;;;2.75;;
74959;SDS011;63518;49.572;1.106;2023-03-17T13:00:46;5.90;;;1.90;;
74959;SDS011;63518;49.572;1.106;2023-03-17T13:05:53;5.40;;;1.88;;
74959;SDS011;63518;49.572;1.106;2023-03-17T13:08:32;6.45;;;1.92;;
74959;SDS011;63518;49.572;1.106;2023-03-17T13:17:03;5.75;;;1.73;;
74959;SDS011;63518;49.572;1.106;2023-03-17T13:22:40;5.15;;;1.88;;
74959;SDS011;63518;49.572;1.106;2023-03-17T13:25:33;5.72;;;1.85;;
74959;SDS011;63518;49.572;1.106;2023-03-17T13:28:22;7.40;;;1.67;;
74959;SDS011;63518;49.572;1.106;2023-03-17T13:31:09;6.68;;;1.90;;
74959;SDS011;63518;49.572;1.106;2023-03-17T13:33:56;7.43;;;2.17;;
74959;SDS011;63518;49.572;1.106;2023-03-17T13:39:27;5.60;;;2.15;;
74959;SDS011;63518;49.572;1.106;2023-03-17T13:42:08;7.50;;;2.20;;
74959;SDS011;63518;49.572;1.106;2023-03-17T13:47:42;6.13;;;1.90;;
74959;SDS011;63518;49.572;1.106;2023-03-17T13:50:14;7.22;;;1.90;;
74959;SDS011;63518;49.572;1.106;2023-03-17T13:52:47;5.75;;;2.03;;
74959;SDS011;63518;49.572;1.106;2023-03-17T13:57:53;6.53;;;1.90;;
74959;SDS011;63518;49.572;1.106;2023-03-17T14:00:42;7.13;;;1.77;;
74959;SDS011;63518;49.572;1.106;2023-03-17T14:05:54;5.28;;;1.83;;
74959;SDS011;63518;49.572;1.106;2023-03-17T14:11:01;11.57;;;2.28;;
74959;SDS011;63518;49.572;1.106;2023-03-17T14:14:17;5.50;;;1.60;;
74959;SDS011;63518;49.572;1.106;2023-03-17T14:16:25;5.40;;;1.30;;
74959;SDS011;63518;49.572;1.106;2023-03-17T14:18:59;6.88;;;1.83;;
74959;SDS011;63518;49.572;1.106;2023-03-17T14:21:36;4.85;;;1.50;;
74959;SDS011;63518;49.572;1.106;2023-03-17T14:24:14;4.33;;;1.40;;
74959;SDS011;63518;49.572;1.106;2023-03-17T14:26:50;4.47;;;1.30;;
74959;SDS011;63518;49.572;1.106;2023-03-17T14:29:19;6.30;;;1.60;;
74959;SDS011;63518;49.572;1.106;2023-03-17T14:31:51;6.00;;;1.65;;
74959;SDS011;63518;49.572;1.106;2023-03-17T14:34:27;5.88;;;1.30;;
74959;SDS011;63518;49.572;1.106;2023-03-17T14:36:58;4.90;;;1.35;;
74959;SDS011;63518;49.572;1.106;2023-03-17T14:39:29;6.70;;;1.60;;
74959;SDS011;63518;49.572;1.106;2023-03-17T14:42:00;4.35;;;1.33;;
74959;SDS011;63518;49.572;1.106;2023-03-17T14:44:36;4.93;;;1.55;;
74959;SDS011;63518;49.572;1.106;2023-03-17T14:49:46;5.20;;;1.50;;
74959;SDS011;63518;49.572;1.106;2023-03-17T14:52:17;4.70;;;1.45;;
74959;SDS011;63518;49.572;1.106;2023-03-17T14:54:53;9.68;;;2.97;;
74959;SDS011;63518;49.572;1.106;2023-03-17T14:57:25;6.53;;;1.60;;
74959;SDS011;63518;49.572;1.106;2023-03-17T14:59:58;5.50;;;1.50;;
74959;SDS011;63518;49.572;1.106;2023-03-17T15:02:53;8.50;;;1.85;;
74959;SDS011;63518;49.572;1.106;2023-03-17T15:05:38;5.72;;;1.80;;
74959;SDS011;63518;49.572;1.106;2023-03-17T15:11:02;6.03;;;2.08;;
74959;SDS011;63518;49.572;1.106;2023-03-17T15:13:35;7.88;;;2.55;;
74959;SDS011;63518;49.572;1.106;2023-03-17T15:16:23;5.43;;;1.50;;
74959;SDS011;63518;49.572;1.106;2023-03-17T15:19:03;6.60;;;2.40;;
74959;SDS011;63518;49.572;1.106;2023-03-17T15:21:40;5.25;;;1.42;;
74959;SDS011;63518;49.572;1.106;2023-03-17T15:27:03;6.10;;;1.53;;
74959;SDS011;63518;49.572;1.106;2023-03-17T15:29:38;5.13;;;1.33;;
74959;SDS011;63518;49.572;1.106;2023-03-17T15:32:10;5.07;;;1.50;;
74959;SDS011;63518;49.572;1.106;2023-03-17T15:34:41;4.57;;;1.45;;
74959;SDS011;63518;49.572;1.106;2023-03-17T15:37:27;5.80;;;1.57;;
74959;SDS011;63518;49.572;1.106;2023-03-17T15:40:02;5.47;;;1.90;;
74959;SDS011;63518;49.572;1.106;2023-03-17T15:42:40;5.07;;;1.77;;
74959;SDS011;63518;49.572;1.106;2023-03-17T15:45:10;6.70;;;1.88;;
74959;SDS011;63518;49.572;1.106;2023-03-17T15:47:40;3.72;;;1.20;;
74959;SDS011;63518;49.572;1.106;2023-03-17T15:50:15;5.03;;;1.40;;
74959;SDS011;63518;49.572;1.106;2023-03-17T15:52:47;4.67;;;1.40;;
74959;SDS011;63518;49.572;1.106;2023-03-17T15:55:15;4.68;;;1.30;;
74959;SDS011;63518;49.572;1.106;2023-03-17T15:57:46;5.43;;;1.58;;
74959;SDS011;63518;49.572;1.106;2023-03-17T16:00:21;4.78;;;1.23;;
74959;SDS011;63518;49.572;1.106;2023-03-17T16:02:51;5.72;;;1.73;;
74959;SDS011;63518;49.572;1.106;2023-03-17T16:05:23;6.87;;;3.00;;
74959;SDS011;63518;49.572;1.106;2023-03-17T16:08:01;6.53;;;2.65;;
74959;SDS011;63518;49.572;1.106;2023-03-17T16:10:29;6.50;;;1.58;;
74959;SDS011;63518;49.572;1.106;2023-03-17T16:12:58;5.28;;;1.35;;
74959;SDS011;63518;49.572;1.106;2023-03-17T16:15:26;5.47;;;1.70;;
74959;SDS011;63518;49.572;1.106;2023-03-17T16:17:57;5.32;;;1.70;;
74959;SDS011;63518;49.572;1.106;2023-03-17T16:20:27;5.88;;;1.50;;
74959;SDS011;63518;49.572;1.106;2023-03-17T16:23:01;6.70;;;2.35;;
74959;SDS011;63518;49.572;1.106;2023-03-17T16:25:33;7.95;;;2.40;;
74959;SDS011;63518;49.572;1.106;2023-03-17T16:28:00;5.20;;;1.70;;
74959;SDS011;63518;49.572;1.106;2023-03-17T16:30:33;5.80;;;1.83;;
74959;SDS011;63518;49.572;1.106;2023-03-17T16:33:20;5.30;;;2.05;;
74959;SDS011;63518;49.572;1.106;2023-03-17T16:35:49;5.72;;;1.75;;
74959;SDS011;63518;49.572;1.106;2023-03-17T16:38:22;5.30;;;1.85;;
74959;SDS011;63518;49.572;1.106;2023-03-17T16:40:51;5.50;;;1.70;;
74959;SDS011;63518;49.572;1.106;2023-03-17T16:43:23;6.10;;;1.50;;
74959;SDS011;63518;49.572;1.106;2023-03-17T16:45:59;4.97;;;1.73;;
74959;SDS011;63518;49.572;1.106;2023-03-17T16:48:28;5.55;;;1.60;;
74959;SDS011;63518;49.572;1.106;2023-03-17T16:50:57;5.18;;;1.25;;
74959;SDS011;63518;49.572;1.106;2023-03-17T16:53:24;6.75;;;1.70;;
74959;SDS011;63518;49.572;1.106;2023-03-17T16:55:52;5.53;;;1.52;;
74959;SDS011;63518;49.572;1.106;2023-03-17T16:58:23;5.93;;;1.70;;
74959;SDS011;63518;49.572;1.106;2023-03-17T17:00:52;5.85;;;1.70;;
74959;SDS011;63518;49.572;1.106;2023-03-17T17:03:24;9.10;;;2.30;;
74959;SDS011;63518;49.572;1.106;2023-03-17T17:05:51;6.32;;;1.80;;
74959;SDS011;63518;49.572;1.106;2023-03-17T17:08:18;7.15;;;2.70;;
74959;SDS011;63518;49.572;1.106;2023-03-17T17:10:45;6.47;;;2.70;;
74959;SDS011;63518;49.572;1.106;2023-03-17T17:13:12;6.60;;;2.70;;
74959;SDS011;63518;49.572;1.106;2023-03-17T17:15:39;7.60;;;2.80;;
74959;SDS011;63518;49.572;1.106;2023-03-17T17:18:14;6.03;;;2.45;;
74959;SDS011;63518;49.572;1.106;2023-03-17T17:20:44;6.95;;;3.10;;
74959;SDS011;63518;49.572;1.106;2023-03-17T17:23:12;8.32;;;2.80;;
74959;SDS011;63518;49.572;1.106;2023-03-17T17:25:40;6.93;;;2.75;;
74959;SDS011;63518;49.572;1.106;2023-03-17T17:28:08;7.13;;;2.58;;
74959;SDS011;63518;49.572;1.106;2023-03-17T17:30:36;6.47;;;2.80;;
74959;SDS011;63518;49.572;1.106;2023-03-17T17:33:03;11.68;;;3.17;;
74959;SDS011;63518;49.572;1.106;2023-03-17T17:35:31;8.48;;;3.42;;
74959;SDS011;63518;49.572;1.106;2023-03-17T17:38:01;7.83;;;2.60;;
74959;SDS011;63518;49.572;1.106;2023-03-17T17:40:30;9.13;;;3.40;;
74959;SDS011;63518;49.572;1.106;2023-03-17T17:42:57;8.15;;;2.40;;
74959;SDS011;63518;49.572;1.106;2023-03-17T17:45:24;6.95;;;2.30;;
74959;SDS011;63518;49.572;1.106;2023-03-17T17:47:51;8.65;;;2.38;;
74959;SDS011;63518;49.572;1.106;2023-03-17T17:50:20;9.70;;;3.08;;
74959;SDS011;63518;49.572;1.106;2023-03-17T17:52:50;11.05;;;4.13;;
74959;SDS011;63518;49.572;1.106;2023-03-17T17:55:18;10.75;;;4.10;;
74959;SDS011;63518;49.572;1.106;2023-03-17T17:57:45;18.30;;;7.57;;
74959;SDS011;63518;49.572;1.106;2023-03-17T18:00:13;13.47;;;4.73;;
74959;SDS011;63518;49.572;1.106;2023-03-17T18:02:42;48.60;;;17.42;;
74959;SDS011;63518;49.572;1.106;2023-03-17T18:05:10;55.53;;;19.20;;
74959;SDS011;63518;49.572;1.106;2023-03-17T18:07:38;21.35;;;12.98;;
74959;SDS011;63518;49.572;1.106;2023-03-17T18:10:05;9.20;;;4.38;;
74959;SDS011;63518;49.572;1.106;2023-03-17T18:12:33;12.05;;;6.18;;
74959;SDS011;63518;49.572;1.106;2023-03-17T18:15:00;7.72;;;3.20;;
74959;SDS011;63518;49.572;1.106;2023-03-17T18:17:28;10.23;;;5.75;;
74959;SDS011;63518;49.572;1.106;2023-03-17T18:19:57;11.60;;;4.43;;
74959;SDS011;63518;49.572;1.106;2023-03-17T18:22:24;6.50;;;2.83;;
74959;SDS011;63518;49.572;1.106;2023-03-17T18:24:52;13.87;;;6.67;;
74959;SDS011;63518;49.572;1.106;2023-03-17T18:27:19;11.50;;;4.60;;
74959;SDS011;63518;49.572;1.106;2023-03-17T18:29:46;8.85;;;3.10;;
74959;SDS011;63518;49.572;1.106;2023-03-17T18:32:14;10.52;;;4.30;;
74959;SDS011;63518;49.572;1.106;2023-03-17T18:34:42;7.75;;;3.13;;
74959;SDS011;63518;49.572;1.106;2023-03-17T18:37:12;11.05;;;3.97;;
74959;SDS011;63518;49.572;1.106;2023-03-17T18:39:41;10.65;;;3.92;;
74959;SDS011;63518;49.572;1.106;2023-03-17T18:42:09;9.35;;;2.40;;
74959;SDS011;63518;49.572;1.106;2023-03-17T18:44:37;7.20;;;2.90;;
74959;SDS011;63518;49.572;1.106;2023-03-17T18:47:05;7.53;;;3.00;;
74959;SDS011;63518;49.572;1.106;2023-03-17T18:49:33;7.43;;;2.25;;
74959;SDS011;63518;49.572;1.106;2023-03-17T18:52:00;7.72;;;2.30;;
74959;SDS011;63518;49.572;1.106;2023-03-17T18:54:27;7.30;;;2.67;;
74959;SDS011;63518;49.572;1.106;2023-03-17T18:56:54;6.80;;;2.83;;
74959;SDS011;63518;49.572;1.106;2023-03-17T18:59:22;4.68;;;1.65;;
74959;SDS011;63518;49.572;1.106;2023-03-17T19:01:48;5.70;;;1.95;;
74959;SDS011;63518;49.572;1.106;2023-03-17T19:04:15;9.85;;;4.78;;
74959;SDS011;63518;49.572;1.106;2023-03-17T19:06:42;7.93;;;2.87;;
74959;SDS011;63518;49.572;1.106;2023-03-17T19:09:10;6.63;;;2.47;;
74959;SDS011;63518;49.572;1.106;2023-03-17T19:11:37;6.60;;;2.30;;
74959;SDS011;63518;49.572;1.106;2023-03-17T19:14:06;6.35;;;1.70;;
74959;SDS011;63518;49.572;1.106;2023-03-17T19:16:34;7.05;;;2.47;;
74959;SDS011;63518;49.572;1.106;2023-03-17T19:19:01;6.25;;;2.58;;
74959;SDS011;63518;49.572;1.106;2023-03-17T19:21:29;7.40;;;2.53;;
74959;SDS011;63518;49.572;1.106;2023-03-17T19:23:57;8.33;;;2.53;;
74959;SDS011;63518;49.572;1.106;2023-03-17T19:26:26;9.95;;;3.55;;
74959;SDS011;63518;49.572;1.106;2023-03-17T19:28:53;9.13;;;3.60;;
74959;SDS011;63518;49.572;1.106;2023-03-17T19:31:22;6.82;;;2.28;;
74959;SDS011;63518;49.572;1.106;2023-03-17T19:33:50;6.55;;;2.42;;
74959;SDS011;63518;49.572;1.106;2023-03-17T19:36:17;5.85;;;2.33;;
74959;SDS011;63518;49.572;1.106;2023-03-17T19:38:44;7.03;;;2.97;;
74959;SDS011;63518;49.572;1.106;2023-03-17T19:41:11;7.47;;;3.30;;